This is the latest recevied weather packets stored in our database for station/object KB2M. If no packets are shown the sender has not sent any weather packets the latest 10 day(s).
| Time | Temp. | Humidity | Pressure | Rain* | Wind** | Luminosity | Snow |
|---|---|---|---|---|---|---|---|
| 1777822936 | 20.56° C | 69% | 1020.9 hPa | 0 mm | - | - | - |
| 1777822335 | 20.56° C | 70% | 1020.6 hPa | 0 mm | - | - | - |
| 1777821735 | 20.56° C | 70% | 1020.9 hPa | 0 mm | - | - | - |
| 1777821134 | 20.56° C | 70% | 1020.6 hPa | 0 mm | - | - | - |
| 1777820533 | 20.56° C | 71% | 1020.6 hPa | 0 mm | - | - | - |
| 1777819933 | 20° C | 71% | 1020.6 hPa | 0.25 mm | - | - | - |
| 1777819333 | 20° C | 71% | 1020.6 hPa | 0.25 mm | - | - | - |
| 1777818703 | 20° C | 74% | 1020.6 hPa | 0.25 mm | - | - | - |
| 1777818073 | 20° C | 73% | 1020.6 hPa | 0.25 mm | - | - | - |
| 1777817443 | 20° C | 75% | 1020.6 hPa | 0.25 mm | - | - | - |
| 1777816813 | 20° C | 74% | 1020.3 hPa | 0.25 mm | - | - | - |
| 1777816213 | 20° C | 74% | 1019.9 hPa | 0 mm | - | - | - |
| 1777815583 | 20° C | 75% | 1019.9 hPa | 0 mm | - | - | - |
| 1777814983 | 18.89° C | 84% | 1019.6 hPa | 0 mm | - | - | - |
| 1777814383 | 18.89° C | 86% | 1019.6 hPa | 0 mm | - | - | - |
| 1777813783 | 18.33° C | 88% | 1019.9 hPa | 0 mm | - | - | - |
| 1777813183 | 17.78° C | 89% | 1019.3 hPa | 0 mm | - | - | - |
| 1777812583 | 17.78° C | 90% | 1019.3 hPa | 0 mm | - | - | - |
| 1777811953 | 17.78° C | 91% | 1019.3 hPa | 0 mm | - | - | - |
| 1777811323 | 17.22° C | 92% | 1019.3 hPa | 0 mm | - | - | - |
| 1777810723 | 16.67° C | 94% | 1019.3 hPa | 0 mm | - | - | - |
| 1777810122 | 16.67° C | 95% | 1018.9 hPa | 0 mm | - | - | - |
| 1777809521 | 16.11° C | 96% | 1018.6 hPa | 0 mm | - | - | - |
| 1777808921 | 16.11° C | 97% | 1018.9 hPa | 0 mm | - | - | - |
| 1777808320 | 15.56° C | 97% | 1018.9 hPa | 0 mm | - | - | - |
* Rain latest hour (hover to see other rain measurements)
** Current wind speed in m/s (hover to see current wind gust speed)